^^
Station Historical Data
Daily Summary for June 13, 2017 Units:  Metric    English   Both
« Previous Day
Next Day »
Daily Weekly Monthly Yearly Custom
  High: Low: Average:
Temperature: 26.3 °C 7.1 °C 13.4 °C
Dew Point: 1.4 °C -4.4 °C -2.4 °C
Humidity: 47% 16% 35%
Wind Speed: 13km/h 0km/h 2.7km/h
Wind Gust: 20.9km/h - -
Wind- - South
Pressure: 1019.5 hPa 1015.5 hPa -
Precipitation: 0 mm    
Historical Graphs
 
 
Tabular Data for June 13, 2017
Time Temperature Dew Point Pressure Wind Wind Speed Wind Gust Humidity Rainfall Rate (Hourly) solar Conditions
00:33 8.5 °C -2.8 °C 1018.2 hPa Calm     45% 0 mm 0.0 W/m2
00:44 8.4 °C -2.9 °C 1018.2 hPa Calm     45% 0 mm 0.0 W/m2
00:49 8.3 °C -3.2 °C 1018.2 hPa Calm     44% 0 mm 0.0 W/m2
00:54 8.1 °C -2.8 °C 1018.2 hPa Calm     46% 0 mm 0.0 W/m2
00:59 8 °C -2.9 °C 1018.2 hPa Calm     46% 0 mm 0.0 W/m2
01:09 7.7 °C -2.9 °C 1018.2 hPa Calm     47% 0 mm 0.0 W/m2
01:14 7.9 °C -2.7 °C 1018.2 hPa Calm     47% 0 mm 0.0 W/m2
01:19 8.1 °C -2.8 °C 1018.2 hPa North 3.2 km/h 8 km/h 46% 0 mm 0.0 W/m2
01:24 8.3 °C -2.9 °C 1018.2 hPa Calm   3.2 km/h 45% 0 mm 0.0 W/m2
01:34 8.3 °C -2.9 °C 1018.2 hPa Calm     45% 0 mm 0.0 W/m2
01:39 8.2 °C -3 °C 1018.2 hPa Calm     45% 0 mm 0.0 W/m2
01:45 8.2 °C -2.7 °C 1017.8 hPa Calm     46% 0 mm 0.0 W/m2
01:50 8.3 °C -2.9 °C 1017.8 hPa Calm     45% 0 mm 0.0 W/m2
01:55 8.3 °C -2.9 °C 1017.8 hPa Calm     45% 0 mm 0.0 W/m2
02:05 8.1 °C -3.1 °C 1017.8 hPa Calm     45% 0 mm 0.0 W/m2
02:10 7.9 °C -3.3 °C 1017.8 hPa Calm     45% 0 mm 0.0 W/m2
02:15 7.9 °C -3.3 °C 1017.8 hPa Calm     45% 0 mm 0.0 W/m2
02:20 7.8 °C -3.4 °C 1017.8 hPa North 7.9 km/h 9.7 km/h 45% 0 mm 0.0 W/m2
02:25 7.8 °C -3.4 °C 1017.8 hPa Calm     45% 0 mm 0.0 W/m2
02:30 7.8 °C -3.4 °C 1017.8 hPa Calm     45% 0 mm 0.0 W/m2
02:36 7.8 °C -3.4 °C 1017.8 hPa Calm     45% 0 mm 0.0 W/m2
02:41 7.8 °C -3.1 °C 1017.8 hPa Calm     46% 0 mm 0.0 W/m2
02:46 7.7 °C -3.8 °C 1018.2 hPa Calm     44% 0 mm 0.0 W/m2
02:51 7.5 °C -3.7 °C 1017.8 hPa Calm     45% 0 mm 0.0 W/m2
02:56 7.4 °C -3.5 °C 1017.8 hPa Calm     46% 0 mm 0.0 W/m2
03:01 7.3 °C -3.9 °C 1017.8 hPa North 9.7 km/h 11.3 km/h 45% 0 mm 0.0 W/m2
03:06 7.2 °C -3.9 °C 1018.2 hPa North 3.2 km/h 11.3 km/h 45% 0 mm 0.0 W/m2
03:11 7.1 °C -4 °C 1018.2 hPa North 7.9 km/h 9.7 km/h 45% 0 mm 0.0 W/m2
03:16 7.1 °C -3.7 °C 1018.2 hPa North 6.4 km/h 9.7 km/h 46% 0 mm 0.0 W/m2
03:21 7.2 °C -3.4 °C 1018.2 hPa North 6.4 km/h 8 km/h 47% 0 mm 0.0 W/m2
03:27 7.3 °C -3.6 °C 1017.8 hPa Calm   8 km/h 46% 0 mm 0.0 W/m2
03:32 7.6 °C -3.3 °C 1017.8 hPa Calm     46% 0 mm 0.0 W/m2
03:37 7.8 °C -3.4 °C 1017.8 hPa Calm   3.2 km/h 45% 0 mm 0.0 W/m2
03:42 8.1 °C -3.1 °C 1017.8 hPa Calm     45% 0 mm 0.0 W/m2
03:47 8.1 °C -3.1 °C 1017.8 hPa Calm     45% 0 mm 0.0 W/m2
03:53 8.1 °C -3.1 °C 1017.8 hPa Calm     45% 0 mm 0.0 W/m2
03:58 7.9 °C -3.3 °C 1017.8 hPa Calm     45% 0 mm 0.0 W/m2
04:08 7.6 °C -3.6 °C 1017.8 hPa Calm     45% 0 mm 0.0 W/m2
04:13 7.6 °C -3.3 °C 1017.8 hPa Calm     46% 0 mm 0.0 W/m2
04:18 7.4 °C -3.5 °C 1017.8 hPa Calm     46% 0 mm 0.0 W/m2
04:23 7.4 °C -3.2 °C 1017.8 hPa Calm     47% 0 mm 0.0 W/m2
04:28 7.7 °C -2.9 °C 1017.8 hPa Calm     47% 0 mm 0.0 W/m2
04:33 8.2 °C -2.7 °C 1017.8 hPa Calm     46% 0 mm 0.0 W/m2
04:38 8.6 °C -3 °C 1017.8 hPa Calm     44% 0 mm 0.0 W/m2
04:43 8.7 °C -2.9 °C 1017.8 hPa Calm     44% 0 mm 0.0 W/m2
04:49 8.7 °C -3.2 °C 1017.8 hPa Calm     43% 0 mm 0.0 W/m2
04:54 8.6 °C -3.3 °C 1017.8 hPa Calm     43% 0 mm 0.0 W/m2
04:59 8.8 °C -2.8 °C 1017.8 hPa Calm     44% 0 mm 0.0 W/m2
05:09 9.6 °C -2.7 °C 1018.2 hPa Calm     42% 0 mm 0.0 W/m2
05:14 9.9 °C -2.7 °C 1018.2 hPa Calm     41% 0 mm 0.0 W/m2
05:19 9.9 °C -2.7 °C 1018.2 hPa Calm     41% 0 mm 0.0 W/m2
05:30 9.3 °C -3 °C 1018.2 hPa Calm     42% 0 mm 0.0 W/m2
05:35 9 °C -3.2 °C 1018.2 hPa North 7.9 km/h 9.7 km/h 42% 0 mm 0.0 W/m2
05:40 8.6 °C -3.3 °C 1018.5 hPa North 6.4 km/h 9.7 km/h 43% 0 mm 0.0 W/m2
05:45 8.4 °C -3.2 °C 1018.5 hPa North 9.7 km/h 9.7 km/h 44% 0 mm 0.0 W/m2
05:50 8.4 °C -3.2 °C 1018.5 hPa North 7.9 km/h 9.7 km/h 44% 0 mm 0.0 W/m2
05:55 8.4 °C -3.2 °C 1018.5 hPa North 3.2 km/h 8 km/h 44% 0 mm 0.0 W/m2
06:05 8.2 °C -3.6 °C 1018.5 hPa North 6.4 km/h 11.3 km/h 43% 0 mm 0.0 W/m2
06:11 8.1 °C -3.4 °C 1018.5 hPa North 9.7 km/h 9.7 km/h 44% 0 mm 0.0 W/m2
06:15 7.9 °C -3.6 °C 1018.5 hPa North 7.9 km/h 9.7 km/h 44% 0 mm 0.0 W/m2
06:22 7.8 °C -3.7 °C 1018.5 hPa Calm   9.7 km/h 44% 0 mm 0.0 W/m2
06:56 7.4 °C -3.5 °C 1018.8 hPa North 6.4 km/h 8 km/h 46% 0 mm 12.0 W/m2
07:12 7.6 °C -3.6 °C 1018.8 hPa North 1.4 km/h 8 km/h 45% 0 mm 18.0 W/m2
07:29 8.3 °C -3.2 °C 1018.8 hPa Calm     44% 0 mm 39.0 W/m2
07:37 9.3 °C -3 °C 1018.8 hPa Calm     42% 0 mm 120.0 W/m2
07:57 10.8 °C -2.6 °C 1019.2 hPa Calm     39% 0 mm 174.0 W/m2
08:06 11.7 °C -2.5 °C 1019.5 hPa Calm     37% 0 mm 211.0 W/m2
08:17 12.7 °C -2 °C 1019.2 hPa Calm     36% 0 mm 241.0 W/m2
08:25 14.1 °C -1.9 °C 1019.5 hPa Calm     33% 0 mm 271.0 W/m2
08:28 14.6 °C -1.9 °C 1019.5 hPa Calm     32% 0 mm 281.0 W/m2
08:38 15.2 °C -1.4 °C 1019.5 hPa Calm     32% 0 mm 313.0 W/m2
08:39 14.9 °C -2.1 °C 1019.2 hPa Calm     31% 0 mm 299.0 W/m2
08:53 16.3 °C -1.3 °C 1019.5 hPa Calm     30% 0 mm 332.0 W/m2
09:04 16.9 °C -1.3 °C 1019.2 hPa Calm     29% 0 mm 357.0 W/m2
09:17 17.9 °C -1.9 °C 1019.5 hPa Calm     26% 0 mm 397.0 W/m2
10:48 22.1 °C -1.3 °C 1018.8 hPa Calm   3.2 km/h 21% 0 mm 561.0 W/m2
10:57 22.2 °C -1.2 °C 1018.5 hPa Calm     21% 0 mm 571.0 W/m2
11:02 22.3 °C -1.1 °C 1018.5 hPa Calm     21% 0 mm 573.0 W/m2
11:07 22.4 °C -1.7 °C 1018.5 hPa Calm     20% 0 mm 578.0 W/m2
11:13 22.6 °C -1.5 °C 1018.2 hPa Calm     20% 0 mm 582.0 W/m2
11:18 22.7 °C -1.4 °C 1018.2 hPa Calm     20% 0 mm 584.0 W/m2
11:23 22.7 °C -1.4 °C 1018.2 hPa Calm     20% 0 mm 587.0 W/m2
11:28 22.7 °C -1.4 °C 1017.8 hPa Calm     20% 0 mm 589.0 W/m2
11:33 23 °C -1.9 °C 1017.8 hPa Calm     19% 0 mm 592.0 W/m2
11:44 23.4 °C -1.5 °C 1017.5 hPa Calm   3.2 km/h 19% 0 mm 592.0 W/m2
11:58 23.7 °C -2 °C 1017.5 hPa Calm   1.6 km/h 18% 0 mm 592.0 W/m2
12:13 24 °C -1.8 °C 1017.2 hPa Calm   9.7 km/h 18% 0 mm 592.0 W/m2
12:20 24.3 °C -2.3 °C 1016.8 hPa Calm     17% 0 mm 585.0 W/m2
13:27 25.4 °C -2.3 °C 1016.1 hPa Calm     16% 0 mm 527.0 W/m2
13:43 25.6 °C -2.1 °C 1015.8 hPa Calm     16% 0 mm 503.0 W/m2
13:55 26.2 °C -1.6 °C 1015.8 hPa Calm     16% 0 mm 475.0 W/m2
14:06 26.3 °C -1.5 °C 1015.5 hPa North 7.9 km/h 11.3 km/h 16% 0 mm 457.0 W/m2
14:11 25.8 °C -1.1 °C 1015.5 hPa North 11.1 km/h 20.9 km/h 17% 0 mm 434.0 W/m2
14:19 25.8 °C -1.1 °C 1015.5 hPa North 11.1 km/h 20.9 km/h 17% 0 mm 434.0 W/m2
14:37 25.3 °C -0.7 °C 1015.5 hPa NNW 9.7 km/h 14.5 km/h 18% 0 mm 387.0 W/m2
14:52 25.1 °C -0.9 °C 1015.5 hPa NNW 7.9 km/h 14.5 km/h 18% 0 mm 353.0 W/m2
15:06 24.9 °C -1.1 °C 1015.5 hPa NW 11.1 km/h 19.3 km/h 18% 0 mm 313.0 W/m2
15:16 24.6 °C -1.3 °C 1015.5 hPa NW 13 km/h 17.7 km/h 18% 0 mm 278.0 W/m2
15:32 24.5 °C -1.4 °C 1015.5 hPa WNW 13 km/h 19.3 km/h 18% 0 mm 246.0 W/m2
15:42 24.1 °C -1.7 °C 1015.5 hPa WNW 11.1 km/h 16.1 km/h 18% 0 mm 193.0 W/m2
16:00 23.7 °C -1.3 °C 1015.8 hPa WNW 13 km/h 17.7 km/h 19% 0 mm 139.0 W/m2
16:07 23.5 °C -1.5 °C 1015.5 hPa WNW 13 km/h 17.7 km/h 19% 0 mm 104.0 W/m2
17:10 21.1 °C 1.4 °C 1016.1 hPa WNW 9.7 km/h 12.9 km/h 27% 0 mm 0.0 W/m2
17:22 20.7 °C 1 °C 1016.1 hPa WNW 11.1 km/h 12.9 km/h 27% 0 mm 0.0 W/m2
17:31 20.2 °C 0.6 °C 1016.1 hPa WNW 9.7 km/h 12.9 km/h 27% 0 mm 0.0 W/m2
17:41 19.7 °C 0.7 °C 1016.1 hPa WNW 9.7 km/h 11.3 km/h 28% 0 mm 0.0 W/m2
17:47 19.2 °C 0.2 °C 1016.1 hPa WNW 9.7 km/h 11.3 km/h 28% 0 mm 0.0 W/m2
17:55 18.9 °C 0 °C 1016.1 hPa WNW 7.9 km/h 11.3 km/h 28% 0 mm 0.0 W/m2
18:00 18.8 °C -0.1 °C 1016.1 hPa WNW 9.7 km/h 11.3 km/h 28% 0 mm 0.0 W/m2
18:14 18.5 °C -0.4 °C 1016.1 hPa WNW 4.7 km/h 6.4 km/h 28% 0 mm 0.0 W/m2
18:27 17.8 °C -0.5 °C 1016.1 hPa WNW 7.9 km/h 9.7 km/h 29% 0 mm 0.0 W/m2
18:35 17.4 °C -0.8 °C 1016.1 hPa WNW 7.9 km/h 9.7 km/h 29% 0 mm 0.0 W/m2
18:41 17.1 °C -1.1 °C 1016.1 hPa WNW 7.9 km/h 8 km/h 29% 0 mm 0.0 W/m2
18:48 16.6 °C -1.1 °C 1016.5 hPa WNW 7.9 km/h 8 km/h 30% 0 mm 0.0 W/m2
18:58 16.1 °C -1.5 °C 1016.5 hPa WNW 6.4 km/h 9.7 km/h 30% 0 mm 0.0 W/m2
19:14 15.9 °C -1.7 °C 1016.8 hPa WNW 6.4 km/h 8 km/h 30% 0 mm 0.0 W/m2
19:29 15.7 °C -1.4 °C 1016.8 hPa WNW 7.9 km/h 9.7 km/h 31% 0 mm 0.0 W/m2
19:39 15.3 °C -0.9 °C 1016.8 hPa WNW 6.4 km/h 8 km/h 33% 0 mm 0.0 W/m2
19:54 14.7 °C -1 °C 1017.2 hPa WNW 4.7 km/h 6.4 km/h 34% 0 mm 0.0 W/m2
20:15 14.4 °C -0.9 °C 1016.8 hPa WNW 4.7 km/h 6.4 km/h 35% 0 mm 0.0 W/m2
20:25 14.4 °C -2.1 °C 1017.2 hPa WNW 1.4 km/h 3.2 km/h 32% 0 mm 0.0 W/m2
20:39 14.3 °C -2.2 °C 1017.2 hPa Calm     32% 0 mm 0.0 W/m2
21:05 13.8 °C -3 °C 1017.2 hPa Calm     31% 0 mm 0.0 W/m2
21:12 13.4 °C -3.4 °C 1017.2 hPa Calm     31% 0 mm 0.0 W/m2
22:56 11.3 °C -4 °C 1017.2 hPa Calm     34% 0 mm 0.0 W/m2
23:01 11.3 °C -4 °C 1016.8 hPa Calm     34% 0 mm 0.0 W/m2
23:06 11.1 °C -3.8 °C 1016.8 hPa Calm     35% 0 mm 0.0 W/m2
23:12 11 °C -3.9 °C 1016.8 hPa Calm     35% 0 mm 0.0 W/m2
23:17 10.9 °C -3.6 °C 1017.2 hPa Calm     36% 0 mm 0.0 W/m2
23:22 10.7 °C -3.8 °C 1016.8 hPa Calm     36% 0 mm 0.0 W/m2
23:27 10.7 °C -3.8 °C 1016.8 hPa Calm     36% 0 mm 0.0 W/m2
23:32 10.7 °C -3.8 °C 1016.8 hPa Calm     36% 0 mm 0.0 W/m2
23:37 10.6 °C -3.9 °C 1016.8 hPa Calm     36% 0 mm 0.0 W/m2
23:42 10.6 °C -3.1 °C 1016.8 hPa Calm     38% 0 mm 0.0 W/m2
23:47 10.4 °C -4.4 °C 1016.8 hPa Calm     35% 0 mm 0.0 W/m2
23:52 10.3 °C -3.8 °C 1016.8 hPa Calm     37% 0 mm 0.0 W/m2
23:57 10.2 °C -3.9 °C 1016.8 hPa Calm     37% 0 mm 0.0 W/m2
Canyon Roadhouse, Fishriver Canyon, Namibia
Compliments of Weather Underground - 2.25 mb